Archival Weather

Republic

Farmingdale, New York (KFRG)

Report from: Thursday, January 25, 2024 7:53 AM EST
Current time: Monday, June 17, 2024 3:35 AM EDT

Current weather – Weather history – Daily summaries
Weather forecast

Present weatherMist
Temperature8.9°C (48.0°F)
Wind chill8.3°C (47.0°F)
Dew point8.3°C (46.9°F)
Winds 3 kts (1.5 m/s, 3.5 mph) West (260°)
Visibility3 mi. (4.8 km)
Clouds Ceiling: Overcast 700 ft. (213 m)
Altimeter30.14 in.Hg (1021 mB)
Relative humidity96 %
Density altitude-821 ft. (-250 m)
Sea-level pressure102.1 kPa (1021 mB, 30.14 in.Hg)
Remarks Automated weather observing station with precipitation discriminator
Flight conditions Instrument Meteorological Conditions
Raw dataKFRG 251253Z 26003KT 3SM BR OVC007 09/08 A3014 RMK AO2 SLP205 T00890083
An error has occurred. This application may no longer respond until reloaded. Reload 🗙